Time;durP1;ratioP1;P1;durP2;ratioP2;P2;SDS_P1;SDS_P2;PMS_P1;PMS_P2;Temp;Humidity;BMP_temperature;BMP_pressure;BME280_temperature;BME280_humidity;BME280_pressure;Samples;Min_cycle;Max_cycle;Signal;HPM_P1;HPM_P2
2021/01/03 00:01:54;;;;;;;44.17;29.33;;;3.70;1.00;;;;;;5031400;28;20418;-62
2021/01/03 00:04:20;;;;;;;45.28;31.27;;;3.70;1.00;;;;;;5031726;28;20795;-63
2021/01/03 00:06:50;;;;;;;46.40;31.52;;;3.70;1.00;;;;;;5031851;28;20795;-64
2021/01/03 00:09:17;;;;;;;46.17;29.95;;;3.60;1.00;;;;;;5031659;28;20418;-64
2021/01/03 00:11:43;;;;;;;44.67;31.35;;;3.60;1.00;;;;;;5031455;28;20417;-64
2021/01/03 00:14:10;;;;;;;46.92;30.17;;;3.60;1.00;;;;;;5031248;28;20422;-64
2021/01/03 00:16:36;;;;;;;49.20;31.25;;;3.50;1.00;;;;;;5031321;28;20441;-64
2021/01/03 00:19:03;;;;;;;46.40;31.37;;;3.60;1.00;;;;;;5031428;28;20987;-64
2021/01/03 00:21:29;;;;;;;45.30;30.25;;;3.60;1.00;;;;;;5030786;28;20419;-64
2021/01/03 00:23:55;;;;;;;49.63;30.85;;;3.70;1.00;;;;;;5030949;28;20907;-64
2021/01/03 00:26:21;;;;;;;50.60;32.55;;;3.50;1.00;;;;;;5030884;28;20426;-63
2021/01/03 00:28:47;;;;;;;46.78;29.95;;;3.50;1.00;;;;;;5030850;28;20422;-64
2021/01/03 00:31:14;;;;;;;47.72;32.13;;;3.40;1.00;;;;;;5031378;28;20415;-63
2021/01/03 00:33:41;;;;;;;46.97;32.15;;;3.40;1.00;;;;;;5030473;28;20419;-63
2021/01/03 00:36:07;;;;;;;46.80;31.52;;;3.40;1.00;;;;;;5031086;28;20424;-64
2021/01/03 00:38:33;;;;;;;49.60;31.13;;;3.30;1.00;;;;;;5030754;28;20422;-64
2021/01/03 00:40:59;;;;;;;49.13;30.58;;;3.30;1.00;;;;;;5031014;28;21084;-64
2021/01/03 00:43:26;;;;;;;52.00;30.33;;;3.20;1.00;;;;;;5030843;28;20411;-64
2021/01/03 00:45:52;;;;;;;48.55;32.88;;;3.20;1.00;;;;;;5030673;28;20431;-64
2021/01/03 00:48:19;;;;;;;47.00;30.65;;;3.20;1.00;;;;;;5030788;28;20823;-64
2021/01/03 00:50:45;;;;;;;44.38;29.63;;;3.20;1.00;;;;;;5030365;28;20426;-64
2021/01/03 00:53:11;;;;;;;48.17;30.48;;;3.20;1.00;;;;;;5030417;28;21131;-64
2021/01/03 00:55:37;;;;;;;48.70;31.88;;;3.20;1.00;;;;;;5031091;28;20411;-64
2021/01/03 00:58:04;;;;;;;47.10;31.10;;;3.20;1.00;;;;;;5031704;28;20427;-64
2021/01/03 01:00:32;;;;;;;43.90;31.08;;;3.10;1.00;;;;;;5030941;28;20422;-64
2021/01/03 01:02:59;;;;;;;48.28;31.27;;;3.10;1.00;;;;;;5030126;28;20484;-63
2021/01/03 01:05:27;;;;;;;50.05;31.95;;;3.00;1.00;;;;;;5030594;28;20907;-65
2021/01/03 01:07:54;;;;;;;48.22;31.42;;;3.00;1.00;;;;;;5030688;28;20411;-64
2021/01/03 01:10:25;;;;;;;51.87;31.53;;;3.00;1.00;;;;;;5030515;28;20815;-64
2021/01/03 01:12:53;;;;;;;50.28;32.22;;;2.90;1.00;;;;;;5030520;28;20422;-64
2021/01/03 01:15:20;;;;;;;51.97;32.35;;;2.90;1.00;;;;;;5030398;28;20410;-64
2021/01/03 01:17:48;;;;;;;47.40;30.05;;;3.00;2.70;;;;;;5030421;28;20931;-64
2021/01/03 01:20:15;;;;;;;50.10;31.63;;;3.00;1.10;;;;;;5030617;28;20415;-63
2021/01/03 01:22:42;;;;;;;51.13;31.47;;;3.10;1.00;;;;;;5029749;28;20419;-63
2021/01/03 01:25:10;;;;;;;50.13;30.67;;;3.10;11.50;;;;;;5030201;28;20410;-63
2021/01/03 01:27:36;;;;;;;50.13;30.80;;;3.00;1.00;;;;;;5029183;28;20903;-63
2021/01/03 01:30:04;;;;;;;50.47;32.35;;;3.10;1.00;;;;;;5030627;28;20411;-63
2021/01/03 01:32:30;;;;;;;50.03;31.50;;;3.10;1.00;;;;;;5029999;28;20410;-63
2021/01/03 01:34:57;;;;;;;47.97;30.95;;;3.10;1.00;;;;;;5030603;28;20419;-63
2021/01/03 01:37:23;;;;;;;48.85;31.17;;;3.00;1.00;;;;;;5030654;28;20836;-63
2021/01/03 01:39:50;;;;;;;50.88;31.00;;;3.00;1.00;;;;;;5030565;28;20423;-63
2021/01/03 01:42:16;;;;;;;52.90;33.33;;;3.00;6.60;;;;;;5034390;28;20417;-64
2021/01/03 01:44:42;;;;;;;53.83;31.08;;;2.90;5.50;;;;;;5033992;28;20830;-63
2021/01/03 01:47:16;;;;;;;48.75;31.58;;;2.90;25.00;;;;;;5033790;28;20457;-63
2021/01/03 01:49:44;;;;;;;46.50;30.85;;;2.90;32.60;;;;;;5034160;28;20859;-63
2021/01/03 01:52:13;;;;;;;44.25;28.73;;;3.00;42.10;;;;;;5033442;28;20418;-64
2021/01/03 01:54:43;;;;;;;48.70;30.48;;;3.00;24.50;;;;;;5033975;28;20821;-64
2021/01/03 01:57:15;;;;;;;49.38;30.77;;;3.00;27.70;;;;;;5033641;28;20411;-64
2021/01/03 01:59:46;;;;;;;51.17;31.42;;;2.90;9.60;;;;;;5034047;28;20473;-63
2021/01/03 02:02:18;;;;;;;46.50;29.50;;;2.90;22.80;;;;;;5033544;28;20449;-64
2021/01/03 02:04:55;;;;;;;50.35;30.95;;;2.90;16.40;;;;;;5033496;28;20888;-64
2021/01/03 02:07:27;;;;;;;45.47;28.93;;;3.00;20.80;;;;;;5033687;28;20815;-64
2021/01/03 02:10:03;;;;;;;48.03;30.35;;;2.90;1.00;;;;;;5033481;28;20426;-63
2021/01/03 02:12:34;;;;;;;45.33;29.13;;;3.00;16.20;;;;;;5033462;28;20510;-64
2021/01/03 02:15:00;;;;;;;47.60;29.10;;;3.00;1.00;;;;;;5033625;28;20415;-63
2021/01/03 02:17:27;;;;;;;45.88;29.60;;;3.00;1.00;;;;;;5033347;28;20407;-64
2021/01/03 02:19:54;;;;;;;47.03;29.30;;;3.00;1.00;;;;;;5033574;28;20444;-63
2021/01/03 02:22:27;;;;;;;42.75;28.85;;;3.00;1.00;;;;;;5032699;28;20406;-64
2021/01/03 02:24:58;;;;;;;43.67;28.60;;;2.90;1.00;;;;;;5033683;28;20473;-64
2021/01/03 02:27:30;;;;;;;47.20;29.63;;;2.90;1.00;;;;;;5032682;28;20427;-64
2021/01/03 02:29:57;;;;;;;46.88;28.92;;;2.90;1.00;;;;;;5033163;28;20492;-63
2021/01/03 02:32:25;;;;;;;44.70;28.50;;;2.90;1.00;;;;;;5032870;28;20914;-64
2021/01/03 02:34:52;;;;;;;38.80;27.25;;;2.90;1.00;;;;;;5032772;28;20480;-63
2021/01/03 02:37:22;;;;;;;41.65;28.38;;;2.80;1.00;;;;;;5033028;28;20880;-64
2021/01/03 02:39:54;;;;;;;41.92;27.10;;;2.90;1.00;;;;;;5033221;28;20795;-64
2021/01/03 02:42:24;;;;;;;40.50;26.77;;;3.00;1.00;;;;;;5032968;28;20475;-64
2021/01/03 02:44:50;;;;;;;37.92;26.38;;;3.00;1.00;;;;;;5033001;28;20415;-64
2021/01/03 02:47:17;;;;;;;43.85;27.23;;;3.00;1.00;;;;;;5032877;28;20431;-63
2021/01/03 02:49:43;;;;;;;40.65;26.75;;;2.90;1.00;;;;;;5033125;28;20887;-63
2021/01/03 02:52:16;;;;;;;41.05;25.73;;;2.90;1.00;;;;;;5032631;28;20481;-64
2021/01/03 02:54:42;;;;;;;36.92;25.70;;;2.90;1.00;;;;;;5032978;28;20411;-63
2021/01/03 02:57:08;;;;;;;42.78;27.80;;;3.00;1.00;;;;;;5033136;28;20469;-63
2021/01/03 02:59:35;;;;;;;40.30;26.73;;;2.90;1.00;;;;;;5032537;28;20469;-63
2021/01/03 03:02:01;;;;;;;37.35;26.17;;;3.00;1.00;;;;;;5032178;28;20415;-63
2021/01/03 03:04:27;;;;;;;39.67;27.85;;;3.00;1.00;;;;;;5032817;28;20469;-64
2021/01/03 03:06:53;;;;;;;45.33;27.95;;;3.00;1.00;;;;;;5032498;28;20813;-64
2021/01/03 03:09:19;;;;;;;42.08;28.77;;;2.90;1.00;;;;;;5032635;28;20415;-64
2021/01/03 03:11:47;;;;;;;41.40;27.38;;;2.80;1.00;;;;;;5032433;28;20771;-64
2021/01/03 03:14:14;;;;;;;39.40;26.00;;;2.80;1.00;;;;;;5033206;28;20831;-64
2021/01/03 03:16:41;;;;;;;44.33;27.80;;;2.70;1.00;;;;;;5032395;28;20469;-64
2021/01/03 03:19:07;;;;;;;41.08;26.38;;;2.80;1.00;;;;;;5032480;28;20415;-63
2021/01/03 03:21:34;;;;;;;41.80;26.20;;;2.70;1.00;;;;;;5032362;28;20419;-63
2021/01/03 03:24:00;;;;;;;39.97;25.75;;;2.70;1.00;;;;;;5031537;28;20423;-63
2021/01/03 03:26:26;;;;;;;36.22;24.08;;;2.80;1.00;;;;;;5032278;28;20427;-63
2021/01/03 03:28:52;;;;;;;38.65;24.63;;;2.80;1.00;;;;;;5032128;28;20411;-63
2021/01/03 03:31:18;;;;;;;32.38;23.60;;;2.90;1.00;;;;;;5032410;28;20411;-63
2021/01/03 03:33:45;;;;;;;38.10;24.63;;;2.90;1.00;;;;;;5032031;28;20784;-63
2021/01/03 03:36:11;;;;;;;38.75;25.50;;;2.90;1.00;;;;;;5031864;28;20418;-63
2021/01/03 03:38:37;;;;;;;32.75;22.70;;;2.90;1.00;;;;;;5032128;28;20410;-63
2021/01/03 03:41:03;;;;;;;32.80;22.97;;;2.90;1.00;;;;;;5033230;28;20495;-63
2021/01/03 03:43:29;;;;;;;35.50;22.92;;;2.90;1.00;;;;;;5031588;28;20414;-62
2021/01/03 03:45:55;;;;;;;34.45;22.77;;;2.80;1.00;;;;;;5031640;28;20848;-64
2021/01/03 03:48:21;;;;;;;30.45;21.30;;;2.80;1.00;;;;;;5031966;28;20415;-62
2021/01/03 03:50:48;;;;;;;30.65;21.25;;;2.80;1.00;;;;;;5031944;28;20422;-62
2021/01/03 03:53:15;;;;;;;33.00;21.42;;;2.80;1.00;;;;;;5031211;28;20430;-64
2021/01/03 03:55:41;;;;;;;29.92;20.45;;;2.80;1.00;;;;;;5031910;28;20421;-64
2021/01/03 03:58:07;;;;;;;33.00;21.58;;;2.70;1.00;;;;;;5031574;28;20425;-64
2021/01/03 04:00:33;;;;;;;34.40;22.50;;;2.70;1.00;;;;;;5031824;28;20422;-62
2021/01/03 04:02:59;;;;;;;32.58;22.20;;;2.80;1.00;;;;;;5030602;28;20414;-62
2021/01/03 04:05:26;;;;;;;30.20;21.50;;;2.80;1.00;;;;;;5031565;28;20475;-62
2021/01/03 04:07:53;;;;;;;34.13;21.42;;;2.80;1.00;;;;;;5031398;28;20427;-64
2021/01/03 04:10:20;;;;;;;29.45;20.83;;;2.90;1.00;;;;;;5031380;28;20415;-62
2021/01/03 04:12:46;;;;;;;32.17;22.90;;;2.90;1.00;;;;;;5030967;28;20494;-62
2021/01/03 04:15:15;;;;;;;31.50;21.75;;;2.80;1.00;;;;;;5031583;28;20414;-61
2021/01/03 04:17:41;;;;;;;34.55;22.20;;;2.80;1.00;;;;;;5031047;28;20438;-62
2021/01/03 04:20:14;;;;;;;33.33;21.92;;;2.80;1.00;;;;;;5031294;28;20426;-64
2021/01/03 04:22:40;;;;;;;32.25;21.52;;;2.80;1.00;;;;;;5030346;28;20419;-62
2021/01/03 04:25:08;;;;;;;32.65;22.77;;;2.80;1.00;;;;;;5030981;28;21053;-62
2021/01/03 04:27:35;;;;;;;30.30;21.50;;;2.80;1.00;;;;;;5031075;28;20434;-62
2021/01/03 04:30:01;;;;;;;31.70;21.85;;;2.90;1.00;;;;;;5030913;28;21123;-62
2021/01/03 04:32:27;;;;;;;33.37;22.70;;;2.90;1.00;;;;;;5030971;28;20419;-64
2021/01/03 04:34:53;;;;;;;33.78;22.80;;;3.00;1.00;;;;;;5031223;28;20414;-62
2021/01/03 04:37:20;;;;;;;34.40;23.80;;;3.00;1.00;;;;;;5030823;28;20422;-62
2021/01/03 04:39:46;;;;;;;29.63;20.90;;;3.00;1.00;;;;;;5030842;28;20419;-63
2021/01/03 04:42:17;;;;;;;34.92;23.02;;;2.90;1.00;;;;;;5030665;28;20423;-64
2021/01/03 04:44:46;;;;;;;35.67;23.00;;;2.80;1.00;;;;;;5031087;28;20476;-64
2021/01/03 04:47:24;;;;;;;33.47;22.30;;;2.90;1.00;;;;;;5030739;28;20431;-64
2021/01/03 04:50:03;;;;;;;34.10;22.40;;;2.90;1.00;;;;;;5030888;28;20419;-64
2021/01/03 04:52:56;;;;;;;30.50;21.73;;;2.90;1.00;;;;;;5030328;28;20411;-64
2021/01/03 04:55:24;;;;;;;33.72;21.60;;;2.90;1.00;;;;;;5030745;28;20415;-63
2021/01/03 04:58:17;;;;;;;32.53;22.05;;;2.80;1.00;;;;;;5030825;28;20411;-63
2021/01/03 05:00:50;;;;;;;33.80;22.25;;;2.80;1.00;;;;;;5030368;28;20481;-64
2021/01/03 05:03:51;;;;;;;36.67;23.83;;;2.90;1.00;;;;;;5030524;28;20418;-64
2021/01/03 05:06:24;;;;;;;34.15;23.70;;;2.70;1.00;;;;;;4978975;28;20431;-64
2021/01/03 05:08:54;;;;;;;35.00;22.00;;;2.70;1.00;;;;;;5030507;28;20411;-64
2021/01/03 05:11:26;;;;;;;32.10;20.92;;;2.70;1.00;;;;;;5030798;28;20422;-64
2021/01/03 05:14:04;;;;;;;31.83;22.60;;;2.70;1.00;;;;;;5030408;28;20422;-63
2021/01/03 05:16:30;;;;;;;29.77;21.15;;;2.80;1.00;;;;;;5033837;28;20411;-64
2021/01/03 05:18:56;;;;;;;29.13;20.90;;;2.70;1.00;;;;;;5034638;28;20415;-64
2021/01/03 05:21:22;;;;;;;32.60;21.08;;;2.70;1.00;;;;;;5034879;28;20415;-64
2021/01/03 05:23:59;;;;;;;30.33;20.27;;;2.80;1.00;;;;;;5034053;28;20422;-64
2021/01/03 05:26:30;;;;;;;32.25;21.30;;;2.70;1.00;;;;;;5034560;28;20423;-64
2021/01/03 05:28:57;;;;;;;31.02;21.20;;;2.80;1.00;;;;;;5034845;28;20470;-61
2021/01/03 05:31:24;;;;;;;31.13;20.77;;;2.80;1.00;;;;;;5034326;28;20418;-64
2021/01/03 05:33:53;;;;;;;30.60;20.65;;;2.70;1.00;;;;;;5034083;28;20407;-64
2021/01/03 05:36:42;;;;;;;30.13;19.65;;;2.70;1.00;;;;;;5034707;28;20489;-64
2021/01/03 05:39:28;;;;;;;25.65;17.60;;;2.80;1.00;;;;;;5034566;28;20783;-64
2021/01/03 05:42:07;;;;;;;29.13;19.00;;;2.80;1.00;;;;;;5034263;28;20415;-64
2021/01/03 05:44:37;;;;;;;26.77;18.53;;;2.80;1.00;;;;;;5034366;28;20418;-64
2021/01/03 05:47:12;;;;;;;21.77;16.30;;;2.80;1.00;;;;;;5034456;28;20442;-64
2021/01/03 05:49:39;;;;;;;23.98;16.65;;;2.80;1.00;;;;;;5034233;28;20414;-63
2021/01/03 05:52:14;;;;;;;25.48;17.65;;;2.90;1.00;;;;;;5034316;28;20902;-64
2021/01/03 05:54:41;;;;;;;23.02;15.90;;;2.90;1.00;;;;;;5033888;28;20418;-64
2021/01/03 05:57:11;;;;;;;20.45;15.50;;;2.80;1.00;;;;;;5034215;28;20414;-64
2021/01/03 05:59:40;;;;;;;21.02;14.77;;;2.80;1.00;;;;;;5034003;28;20419;-64
2021/01/03 06:02:09;;;;;;;20.48;14.70;;;2.70;1.00;;;;;;5033600;28;20474;-63
2021/01/03 06:04:35;;;;;;;19.42;13.23;;;2.80;1.00;;;;;;5034069;28;20896;-63
2021/01/03 06:07:08;;;;;;;16.15;12.20;;;2.80;1.00;;;;;;5033725;28;20431;-62
2021/01/03 06:09:37;;;;;;;18.63;12.95;;;2.80;1.00;;;;;;5033938;28;20418;-64
2021/01/03 06:12:08;;;;;;;17.25;12.73;;;2.80;1.00;;;;;;5035436;28;21073;-63
2021/01/03 06:14:35;;;;;;;16.92;11.85;;;2.80;1.00;;;;;;5036901;28;20411;-63
2021/01/03 06:17:16;;;;;;;16.15;12.55;;;2.70;99.90;;;;;;5044390;28;20414;-63
2021/01/03 06:19:47;;;;;;;17.33;12.57;;;2.80;99.90;;;;;;5034113;28;20411;-63
2021/01/03 06:22:29;;;;;;;14.95;11.35;;;2.80;99.90;;;;;;5033588;28;20419;-63
2021/01/03 06:24:57;;;;;;;16.45;11.75;;;2.80;99.90;;;;;;5033948;28;20465;-63
2021/01/03 06:27:30;;;;;;;14.70;10.95;;;2.80;99.90;;;;;;5033210;28;20427;-63
2021/01/03 06:30:02;;;;;;;14.40;10.70;;;2.80;99.90;;;;;;5033568;28;20419;-63
2021/01/03 06:33:14;;;;;;;13.35;10.82;;;2.80;99.90;;;;;;5032927;28;20477;-63
2021/01/03 06:35:47;;;;;;;14.25;10.23;;;2.90;99.90;;;;;;4933871;29;20415;-63
2021/01/03 06:38:15;;;;;;;13.77;11.10;;;2.90;99.90;;;;;;4933418;29;20528;-63
2021/01/03 06:40:48;;;;;;;13.38;10.68;;;2.90;99.90;;;;;;4991888;28;20419;-63
2021/01/03 06:43:47;;;;;;;15.13;10.45;;;2.90;99.90;;;;;;5033331;28;20495;-63
2021/01/03 06:46:42;;;;;;;16.48;11.38;;;2.90;99.90;;;;;;5033120;28;20434;-62
2021/01/03 06:49:34;;;;;;;12.93;9.70;;;2.90;99.90;;;;;;5032995;28;20419;-62
2021/01/03 06:52:20;;;;;;;15.35;10.73;;;2.90;99.90;;;;;;5033928;28;20420;-63
2021/01/03 06:55:09;;;;;;;11.80;9.55;;;2.90;99.90;;;;;;5032960;28;20415;-63
2021/01/03 06:58:04;;;;;;;12.32;9.98;;;2.90;99.90;;;;;;5033160;28;20415;-63
2021/01/03 07:00:37;;;;;;;15.43;10.00;;;2.80;99.90;;;;;;5032036;28;20791;-64
2021/01/03 07:03:09;;;;;;;14.40;9.88;;;2.80;99.90;;;;;;5032607;28;20934;-62
2021/01/03 07:05:36;;;;;;;12.52;9.15;;;2.90;99.90;;;;;;5032719;28;20428;-62
2021/01/03 07:08:06;;;;;;;11.95;9.85;;;2.80;99.90;;;;;;5032233;28;20931;-62
2021/01/03 07:10:37;;;;;;;11.55;9.57;;;2.80;99.90;;;;;;5032760;28;20447;-62
2021/01/03 07:13:24;;;;;;;10.60;9.10;;;2.90;99.90;;;;;;5032313;28;20415;-63
2021/01/03 07:15:51;;;;;;;10.90;8.85;;;2.90;99.90;;;;;;5032391;28;20450;-63
2021/01/03 07:18:27;;;;;;;9.52;8.38;;;2.90;99.90;;;;;;5032397;28;20418;-62
2021/01/03 07:20:58;;;;;;;11.30;9.23;;;2.90;99.90;;;;;;5032364;28;20506;-63
2021/01/03 07:23:31;;;;;;;12.13;9.20;;;2.90;99.90;;;;;;5032203;28;20411;-62
2021/01/03 07:26:12;;;;;;;11.20;8.80;;;2.90;99.90;;;;;;5032232;28;20484;-62
2021/01/03 07:28:38;;;;;;;10.05;8.27;;;2.90;99.90;;;;;;5031942;28;20415;-63
2021/01/03 07:31:11;;;;;;;10.77;8.68;;;2.90;99.90;;;;;;5032265;28;20887;-63
2021/01/03 07:33:45;;;;;;;10.55;8.40;;;2.90;99.90;;;;;;5032593;28;20407;-63
2021/01/03 07:36:27;;;;;;;9.45;8.40;;;3.00;99.90;;;;;;5032945;28;20417;-63
2021/01/03 07:39:22;;;;;;;11.75;8.68;;;2.90;99.90;;;;;;5031325;28;20907;-63
2021/01/03 07:42:09;;;;;;;10.43;8.60;;;2.80;99.90;;;;;;5032240;28;20423;-63
2021/01/03 07:44:37;;;;;;;11.45;8.90;;;2.90;99.90;;;;;;5031797;28;20492;-63
2021/01/03 07:47:04;;;;;;;12.02;9.60;;;2.80;99.90;;;;;;5032222;28;20431;-62
2021/01/03 07:49:39;;;;;;;10.93;8.65;;;2.80;99.90;;;;;;5032008;28;20418;-63
2021/01/03 07:52:39;;;;;;;9.57;8.57;;;2.90;99.90;;;;;;5032262;28;20430;-63
2021/01/03 07:55:13;;;;;;;9.75;8.70;;;2.80;99.90;;;;;;5031793;28;20411;-63
2021/01/03 07:57:39;;;;;;;9.50;8.30;;;2.90;99.90;;;;;;5031638;28;20509;-63
2021/01/03 08:00:07;;;;;;;9.60;8.60;;;2.90;99.90;;;;;;5031566;28;20819;-62
2021/01/03 08:02:37;;;;;;;9.00;8.10;;;2.90;99.90;;;;;;5031214;28;20422;-63
2021/01/03 08:05:05;;;;;;;8.70;7.70;;;2.90;99.90;;;;;;5031585;28;20415;-63
2021/01/03 08:07:31;;;;;;;9.65;8.65;;;2.80;99.90;;;;;;5031375;28;20427;-63
2021/01/03 08:10:07;;;;;;;8.57;7.25;;;2.80;99.90;;;;;;5031500;28;20407;-63
2021/01/03 08:12:40;;;;;;;9.43;7.80;;;2.90;99.90;;;;;;5031454;28;20471;-63
2021/01/03 08:15:10;;;;;;;9.52;8.30;;;2.90;99.90;;;;;;5031307;28;21066;-62
2021/01/03 08:17:41;;;;;;;9.10;8.00;;;2.90;99.90;;;;;;5031424;28;20403;-63
2021/01/03 08:20:10;;;;;;;11.07;8.30;;;2.90;99.90;;;;;;5031237;28;20449;-63
2021/01/03 08:22:37;;;;;;;9.25;7.75;;;2.90;99.90;;;;;;5030852;28;20416;-62
2021/01/03 08:25:06;;;;;;;9.98;7.95;;;2.90;99.90;;;;;;5031783;28;20422;-62
2021/01/03 08:27:40;;;;;;;7.90;6.60;;;2.90;99.90;;;;;;5031667;28;20426;-63
2021/01/03 08:30:13;;;;;;;9.73;8.00;;;2.90;99.90;;;;;;5031824;28;20416;-62
2021/01/03 08:32:40;;;;;;;9.27;7.97;;;2.90;99.90;;;;;;5031269;28;20423;-63
2021/01/03 08:35:10;;;;;;;7.47;6.63;;;2.90;99.90;;;;;;5031636;28;20422;-63
2021/01/03 08:37:40;;;;;;;8.80;7.10;;;2.90;99.90;;;;;;5032151;28;20473;-63
2021/01/03 08:40:20;;;;;;;9.48;7.50;;;2.90;99.90;;;;;;5032318;28;20415;-63
2021/01/03 08:42:53;;;;;;;8.82;7.22;;;2.90;99.90;;;;;;5032187;28;20430;-63
2021/01/03 08:45:24;;;;;;;7.70;6.75;;;2.80;99.90;;;;;;5031860;28;20421;-63
2021/01/03 08:47:51;;;;;;;7.72;6.90;;;2.90;99.90;;;;;;5032639;28;20423;-63
2021/01/03 08:50:21;;;;;;;7.85;7.15;;;2.90;99.90;;;;;;5032292;28;20423;-62
2021/01/03 08:52:55;;;;;;;7.93;7.03;;;2.90;99.90;;;;;;5023272;28;20420;-63
2021/01/03 08:55:23;;;;;;;7.90;7.20;;;2.90;99.90;;;;;;5030934;28;20419;-63
2021/01/03 08:57:55;;;;;;;8.10;6.73;;;2.80;99.90;;;;;;5031801;28;20842;-66
2021/01/03 09:00:24;;;;;;;6.73;6.03;;;2.90;99.90;;;;;;5030941;28;20505;-64
2021/01/03 09:02:56;;;;;;;9.82;6.03;;;3.00;99.90;;;;;;5031379;28;20510;-63
2021/01/03 09:05:25;;;;;;;4.97;4.55;;;2.90;99.90;;;;;;5032508;28;20210;-65
2021/01/03 09:07:53;;;;;;;8.10;5.88;;;2.90;99.90;;;;;;5032903;28;20320;-63
2021/01/03 09:10:26;;;;;;;5.15;4.65;;;2.90;99.90;;;;;;5031796;28;20588;-63
2021/01/03 09:13:10;;;;;;;6.85;5.32;;;2.80;99.90;;;;;;5031650;28;20233;-63
2021/01/03 09:15:40;;;;;;;5.95;5.22;;;2.80;99.90;;;;;;5036139;28;20185;-64
2021/01/03 09:18:18;;;;;;;7.80;4.60;;;2.80;99.90;;;;;;5031984;28;20641;-64
2021/01/03 09:20:46;;;;;;;5.60;5.00;;;2.80;99.90;;;;;;5031696;28;20199;-65
2021/01/03 09:23:18;;;;;;;6.80;4.70;;;2.80;99.90;;;;;;5032158;28;20203;-63
2021/01/03 09:25:52;;;;;;;8.98;4.93;;;2.80;99.90;;;;;;5031979;28;20250;-63
2021/01/03 09:28:24;;;;;;;5.13;4.10;;;2.80;99.90;;;;;;5031806;28;20232;-63
2021/01/03 09:30:51;;;;;;;6.05;5.45;;;2.70;99.90;;;;;;5032033;28;20204;-65
2021/01/03 09:33:24;;;;;;;5.43;4.85;;;2.70;99.90;;;;;;5031429;28;20226;-64
2021/01/03 09:36:00;;;;;;;8.93;6.10;;;2.70;99.90;;;;;;5031013;28;20200;-65
2021/01/03 09:39:17;;;;;;;6.03;4.82;;;2.70;99.90;;;;;;5031539;28;20227;-65
2021/01/03 09:42:17;;;;;;;9.48;5.53;;;2.80;99.90;;;;;;4907965;29;20378;-65
2021/01/03 09:44:52;;;;;;;6.30;5.28;;;2.80;99.90;;;;;;5019022;28;20197;-65
2021/01/03 09:47:18;;;;;;;10.45;6.30;;;2.80;99.90;;;;;;5031272;28;20238;-65
2021/01/03 09:49:48;;;;;;;9.02;5.57;;;2.80;99.90;;;;;;5029788;28;21016;-64
2021/01/03 09:52:24;;;;;;;7.55;5.15;;;2.80;99.90;;;;;;5031337;28;20242;-64
2021/01/03 09:54:55;;;;;;;6.45;4.68;;;2.70;99.90;;;;;;5031415;28;20201;-64
2021/01/03 09:57:33;;;;;;;6.60;4.70;;;2.80;99.90;;;;;;5031751;28;20221;-63
2021/01/03 09:59:59;;;;;;;6.30;5.07;;;2.80;99.90;;;;;;5031740;28;20203;-63
2021/01/03 10:02:26;;;;;;;5.32;4.15;;;2.70;99.90;;;;;;5034390;28;20205;-63
2021/01/03 10:04:54;;;;;;;8.48;5.45;;;2.70;99.90;;;;;;5035078;28;20612;-64
2021/01/03 10:07:24;;;;;;;7.55;5.32;;;2.70;99.90;;;;;;5034980;28;20241;-64
2021/01/03 10:09:55;;;;;;;6.93;5.18;;;2.80;99.90;;;;;;5035114;28;20565;-64
2021/01/03 10:12:31;;;;;;;7.95;5.53;;;2.80;99.90;;;;;;5034969;28;20207;-64
2021/01/03 10:15:07;;;;;;;6.85;4.35;;;2.90;99.90;;;;;;5035253;28;20226;-64
2021/01/03 10:17:34;;;;;;;9.93;4.57;;;2.90;99.90;;;;;;5035164;28;20236;-64
2021/01/03 10:20:00;;;;;;;8.30;5.38;;;2.90;99.90;;;;;;5034574;28;20682;-64
2021/01/03 10:22:32;;;;;;;10.13;6.13;;;2.80;99.90;;;;;;5034914;28;20203;-64
2021/01/03 10:25:00;;;;;;;20.27;8.95;;;2.80;99.90;;;;;;5034766;28;20254;-64
2021/01/03 10:27:28;;;;;;;9.93;6.83;;;2.80;99.90;;;;;;5033482;28;20438;-64
2021/01/03 10:29:54;;;;;;;9.20;7.17;;;2.80;99.90;;;;;;5033320;28;20492;-64
2021/01/03 10:32:20;;;;;;;8.40;6.60;;;2.90;99.90;;;;;;5033660;28;21039;-64
2021/01/03 10:34:47;;;;;;;7.20;6.47;;;3.00;99.90;;;;;;5033458;28;20900;-64
2021/01/03 10:37:13;;;;;;;7.73;6.50;;;3.00;99.90;;;;;;5033295;28;20407;-64
2021/01/03 10:39:39;;;;;;;6.63;5.75;;;3.10;99.90;;;;;;5033769;28;20427;-64
2021/01/03 10:42:06;;;;;;;8.18;6.32;;;3.00;99.90;;;;;;5033346;28;20978;-64
2021/01/03 10:44:34;;;;;;;6.70;6.00;;;3.10;99.90;;;;;;5032971;28;20864;-64
2021/01/03 10:47:00;;;;;;;9.55;7.45;;;3.10;99.90;;;;;;5033100;28;20427;-64
2021/01/03 10:49:27;;;;;;;6.80;6.10;;;3.10;99.90;;;;;;5033336;28;20884;-64
2021/01/03 10:51:53;;;;;;;8.13;6.93;;;3.10;99.90;;;;;;5032718;28;20886;-64
2021/01/03 10:54:21;;;;;;;8.20;6.43;;;3.10;99.90;;;;;;5032520;28;20418;-64
2021/01/03 10:56:48;;;;;;;6.63;5.78;;;3.10;99.90;;;;;;5032114;28;20442;-64
2021/01/03 10:59:15;;;;;;;7.70;6.75;;;3.20;99.90;;;;;;5032481;28;20422;-65
2021/01/03 11:01:42;;;;;;;7.07;6.10;;;3.20;99.90;;;;;;5032415;28;20780;-65
2021/01/03 11:04:08;;;;;;;5.63;5.03;;;3.30;99.90;;;;;;5030180;28;20414;-65
2021/01/03 11:06:36;;;;;;;5.90;5.27;;;3.20;99.90;;;;;;5032863;28;20418;-65
2021/01/03 11:09:03;;;;;;;7.10;6.03;;;3.40;99.90;;;;;;5032771;28;20414;-66
2021/01/03 11:11:29;;;;;;;6.82;5.63;;;3.20;99.90;;;;;;5033071;28;20798;-64
2021/01/03 11:13:55;;;;;;;6.75;5.40;;;3.30;99.90;;;;;;5032888;28;20473;-64
2021/01/03 11:16:29;;;;;;;6.18;5.15;;;3.30;99.90;;;;;;5032966;28;20776;-64
2021/01/03 11:18:56;;;;;;;7.18;5.85;;;3.10;99.90;;;;;;5033569;28;20830;-64
2021/01/03 11:21:22;;;;;;;6.22;5.63;;;3.10;99.90;;;;;;5032399;28;20426;-64
2021/01/03 11:23:48;;;;;;;6.22;5.40;;;3.10;99.90;;;;;;5032489;28;20419;-64
2021/01/03 11:26:14;;;;;;;6.82;6.13;;;3.20;99.90;;;;;;5032269;28;20461;-66
2021/01/03 11:28:40;;;;;;;7.18;5.68;;;3.20;99.90;;;;;;5032030;28;20431;-66
2021/01/03 11:31:06;;;;;;;7.18;5.97;;;3.10;99.90;;;;;;5031768;28;20550;-67
2021/01/03 11:33:33;;;;;;;6.28;5.68;;;3.20;99.90;;;;;;5031637;28;20419;-66
2021/01/03 11:36:00;;;;;;;6.20;5.60;;;3.20;99.90;;;;;;5032319;28;20496;-67
2021/01/03 11:38:26;;;;;;;6.60;5.80;;;3.30;99.90;;;;;;5032272;28;20415;-67
2021/01/03 11:40:52;;;;;;;6.50;5.90;;;3.40;99.90;;;;;;5032223;28;20418;-68
2021/01/03 11:43:18;;;;;;;8.45;6.38;;;3.30;99.90;;;;;;5034109;28;20915;-66
2021/01/03 11:45:44;;;;;;;7.88;6.88;;;3.30;99.90;;;;;;5031858;28;20471;-64
2021/01/03 11:48:10;;;;;;;6.03;5.43;;;3.30;99.90;;;;;;5031725;28;20498;-64
2021/01/03 11:50:37;;;;;;;6.65;5.90;;;3.30;99.90;;;;;;5031615;28;20411;-64
2021/01/03 11:53:04;;;;;;;8.45;7.10;;;3.40;99.90;;;;;;5031010;28;20788;-64
2021/01/03 11:55:30;;;;;;;8.75;7.00;;;3.30;99.90;;;;;;5031634;28;20419;-64
2021/01/03 11:57:56;;;;;;;7.50;6.45;;;3.40;99.90;;;;;;5031693;28;20788;-64
2021/01/03 12:00:22;;;;;;;7.38;6.15;;;3.40;99.90;;;;;;5031763;28;20422;-62
2021/01/03 12:02:48;;;;;;;6.20;5.60;;;3.50;99.90;;;;;;5031533;28;20415;-64
2021/01/03 12:05:17;;;;;;;8.38;6.82;;;3.40;99.90;;;;;;5036195;28;20411;-64
2021/01/03 12:07:45;;;;;;;7.07;6.05;;;3.50;99.90;;;;;;5030560;28;21445;-65
2021/01/03 12:10:12;;;;;;;7.35;6.65;;;3.40;99.90;;;;;;5032035;28;20419;-64
2021/01/03 12:12:39;;;;;;;8.65;7.20;;;3.40;99.90;;;;;;5031254;28;20442;-64
2021/01/03 12:15:06;;;;;;;7.22;6.15;;;3.50;99.90;;;;;;5031022;28;21075;-64
2021/01/03 12:17:32;;;;;;;7.90;6.50;;;3.50;99.90;;;;;;5031214;28;20892;-64
2021/01/03 12:19:58;;;;;;;8.13;7.10;;;3.50;99.90;;;;;;5031312;28;20434;-63
2021/01/03 12:22:25;;;;;;;8.65;6.82;;;3.60;99.90;;;;;;5030844;28;20422;-66
2021/01/03 12:24:51;;;;;;;8.20;6.68;;;3.60;99.90;;;;;;5029766;28;20884;-66
2021/01/03 12:27:20;;;;;;;8.32;7.43;;;3.60;99.90;;;;;;5031240;28;20423;-64
2021/01/03 12:29:46;;;;;;;8.23;7.07;;;3.40;99.90;;;;;;5031738;28;20498;-64
2021/01/03 12:32:13;;;;;;;8.77;6.80;;;3.30;99.90;;;;;;5030982;28;20418;-63
2021/01/03 12:34:40;;;;;;;10.70;7.35;;;3.40;99.90;;;;;;5030055;28;20419;-62
2021/01/03 12:37:08;;;;;;;9.02;7.32;;;3.40;99.90;;;;;;5030642;28;20411;-63
2021/01/03 12:39:35;;;;;;;8.30;6.87;;;3.40;99.90;;;;;;5031086;28;20410;-64
2021/01/03 12:42:02;;;;;;;7.65;6.68;;;3.40;99.90;;;;;;5030805;28;20497;-65
2021/01/03 12:44:29;;;;;;;8.98;7.60;;;3.40;99.90;;;;;;5029920;28;20888;-63
2021/01/03 12:46:59;;;;;;;8.60;7.70;;;3.50;99.90;;;;;;5031435;28;20847;-67
2021/01/03 12:49:25;;;;;;;7.82;7.03;;;3.50;99.90;;;;;;5031875;28;20502;-63
2021/01/03 12:51:52;;;;;;;10.82;7.35;;;3.30;99.90;;;;;;5032642;28;20529;-65
2021/01/03 12:54:18;;;;;;;7.00;6.30;;;3.30;99.90;;;;;;5031502;28;20418;-65
2021/01/03 12:56:44;;;;;;;8.18;7.30;;;3.30;99.90;;;;;;5030353;28;20411;-64
2021/01/03 12:59:10;;;;;;;13.05;10.10;;;3.30;99.90;;;;;;5030590;28;20507;-64
2021/01/03 13:01:38;;;;;;;10.48;8.35;;;3.40;99.90;;;;;;5030625;28;20426;-64
2021/01/03 13:04:07;;;;;;;9.65;6.95;;;3.30;99.90;;;;;;5029898;28;20430;-64
2021/01/03 13:06:34;;;;;;;10.65;8.65;;;3.30;99.90;;;;;;5030629;28;20414;-63